Penhook, Virginia
Current Conditions -  °F | °C
As of 12:54 PM on Wednesday 26 Nov 2014 (Local Time) from KROA Reporting Station
Light Rain Light Rain  
Wind Chill: 30°   Ceiling: 7000
Heat Index: 35°   Visibility: 3mi
Dew Point: 33°   Wind: 6mph
Humidity: 92%   Direction: 300°WNW
Pressure: 29.99"   Gusts: NA
Location:  36.98°N, 79.63°W
Report Text: KROA 261754Z 30005KT 3SM -RA BKN070 OVC085 02/01 A2999 RMK AO2 SFC VIS 10 RAE20B39DZB20E39 SLP159 P0002 60049 T00170006 10017 20000 58019
Loading
Personal Weather Stations






























Interactive Weather Map New forecast layout! Learn more

10-Day Weather Forecast

Advertisements
Track Severe Weather on mobile